createdAt,value
2022-08-20T00:01:15.511Z,7.20
2022-08-20T00:03:51.676Z,6.65
2022-08-20T00:06:31.764Z,6.53
2022-08-20T00:09:05.574Z,6.57
2022-08-20T00:11:35.566Z,7.10
2022-08-20T00:14:06.675Z,6.60
2022-08-20T00:16:41.147Z,6.55
2022-08-20T00:19:18.954Z,7.10
2022-08-20T00:21:58.095Z,6.65
2022-08-20T00:27:15.099Z,6.38
2022-08-20T00:29:44.251Z,6.50
2022-08-20T00:32:11.866Z,5.80
2022-08-20T00:34:56.945Z,5.80
2022-08-20T00:37:28.161Z,5.35
2022-08-20T00:39:58.073Z,5.30
2022-08-20T00:42:33.597Z,5.00
2022-08-20T00:45:05.312Z,5.28
2022-08-20T00:47:32.891Z,5.50
2022-08-20T00:50:08.729Z,4.95
2022-08-20T00:52:38.023Z,5.97
2022-08-20T00:55:07.872Z,6.60
2022-08-20T00:57:59.757Z,5.35
2022-08-20T01:00:39.918Z,6.32
2022-08-20T01:03:10.108Z,6.25
2022-08-20T01:05:40.424Z,6.13
2022-08-20T01:08:14.876Z,5.78
2022-08-20T01:10:50.884Z,6.20
2022-08-20T01:13:29.795Z,6.93
2022-08-20T01:15:59.332Z,5.85
2022-08-20T01:18:37.697Z,6.15
2022-08-20T01:21:11.794Z,6.05
2022-08-20T01:23:48.083Z,5.90
2022-08-20T01:26:27.145Z,5.32
2022-08-20T01:29:03.869Z,5.50
2022-08-20T01:31:38.411Z,5.28
2022-08-20T01:34:15.525Z,5.63
2022-08-20T01:36:55.393Z,5.32
2022-08-20T01:39:39.421Z,5.25
2022-08-20T01:42:29.833Z,5.63
2022-08-20T01:45:05.034Z,5.85
2022-08-20T01:47:45.637Z,5.28
2022-08-20T01:50:27.244Z,5.47
2022-08-20T01:53:22.739Z,5.57
2022-08-20T01:55:56.386Z,5.38
2022-08-20T01:58:29.798Z,4.93
2022-08-20T02:00:58.901Z,5.60
2022-08-20T02:03:30.219Z,5.38
2022-08-20T02:06:06.576Z,4.80
2022-08-20T02:08:34.361Z,5.15
2022-08-20T02:11:05.456Z,5.32
2022-08-20T02:13:34.003Z,5.82
2022-08-20T02:16:06.494Z,5.38
2022-08-20T02:18:40.957Z,5.97
2022-08-20T02:21:08.172Z,6.10
2022-08-20T02:23:37.835Z,5.78
2022-08-20T02:26:16.042Z,6.20
2022-08-20T02:28:50.247Z,5.90
2022-08-20T02:32:31.145Z,6.70
2022-08-20T02:35:01.745Z,6.93
2022-08-20T02:37:36.559Z,6.85
2022-08-20T02:40:09.122Z,6.80
2022-08-20T02:42:43.837Z,6.97
2022-08-20T02:45:19.001Z,6.90
2022-08-20T02:47:47.245Z,7.05
2022-08-20T02:50:22.988Z,6.75
2022-08-20T02:52:51.770Z,6.57
2022-08-20T02:55:27.504Z,7.78
2022-08-20T02:58:00.278Z,6.55
2022-08-20T03:00:38.356Z,7.40
2022-08-20T03:03:10.730Z,7.03
2022-08-20T03:05:43.539Z,7.00
2022-08-20T03:08:16.410Z,7.22
2022-08-20T03:10:48.180Z,6.85
2022-08-20T03:13:19.611Z,7.25
2022-08-20T03:15:58.458Z,6.80
2022-08-20T03:18:35.009Z,6.97
2022-08-20T03:21:03.010Z,7.07
2022-08-20T03:23:38.011Z,7.38
2022-08-20T03:26:13.041Z,7.60
2022-08-20T03:28:42.311Z,7.70
2022-08-20T03:31:15.449Z,7.57
2022-08-20T03:33:53.219Z,6.93
2022-08-20T03:36:27.839Z,8.18
2022-08-20T03:38:57.739Z,8.40
2022-08-20T03:41:26.675Z,6.88
2022-08-20T03:43:54.961Z,7.70
2022-08-20T03:46:24.076Z,9.38
2022-08-20T03:49:00.518Z,7.30
2022-08-20T03:51:57.906Z,7.18
2022-08-20T03:54:23.064Z,7.82
2022-08-20T03:56:53.905Z,7.70
2022-08-20T03:59:26.994Z,7.05
2022-08-20T04:01:56.155Z,8.50
2022-08-20T04:04:27.247Z,8.27
2022-08-20T04:06:56.237Z,7.75
2022-08-20T04:09:23.564Z,8.50
2022-08-20T04:11:51.698Z,7.32
2022-08-20T04:14:20.550Z,7.68
2022-08-20T04:16:49.258Z,7.00
2022-08-20T04:19:20.687Z,8.63
2022-08-20T04:21:52.922Z,7.72
2022-08-20T04:24:27.499Z,9.95
2022-08-20T04:27:02.761Z,8.70
2022-08-20T04:29:35.322Z,7.82
2022-08-20T04:32:06.336Z,8.82
2022-08-20T04:34:36.923Z,8.77
2022-08-20T04:37:05.320Z,9.10
2022-08-20T04:39:34.297Z,8.75
2022-08-20T04:42:03.269Z,9.05
2022-08-20T04:44:30.391Z,8.82
2022-08-20T04:47:03.895Z,9.27
2022-08-20T04:49:32.370Z,8.50
2022-08-20T04:52:02.803Z,9.15
2022-08-20T04:54:31.509Z,8.65
2022-08-20T04:57:01.563Z,9.02
2022-08-20T04:59:40.541Z,9.00
2022-08-20T05:02:40.368Z,10.00
2022-08-20T05:05:14.760Z,9.05
2022-08-20T05:07:46.241Z,9.45
2022-08-20T05:10:18.320Z,9.98
2022-08-20T05:12:56.608Z,9.48
2022-08-20T05:15:26.413Z,9.20
2022-08-20T05:18:14.599Z,9.32
2022-08-20T05:20:44.032Z,9.23
2022-08-20T05:23:13.907Z,9.15
2022-08-20T05:25:44.776Z,9.10
2022-08-20T05:31:03.101Z,8.77
2022-08-20T05:33:30.656Z,10.23
2022-08-20T05:36:01.739Z,8.88
2022-08-20T05:38:44.482Z,9.07
2022-08-20T05:41:29.200Z,9.40
2022-08-20T05:44:03.947Z,9.55
2022-08-20T05:46:33.038Z,9.00
2022-08-20T05:49:05.111Z,10.18
2022-08-20T05:51:36.844Z,10.57
2022-08-20T05:54:08.103Z,10.45
2022-08-20T05:56:36.893Z,9.52
2022-08-20T05:59:11.898Z,9.73
2022-08-20T06:04:47.316Z,10.07
2022-08-20T06:07:33.158Z,9.38
2022-08-20T06:15:31.026Z,9.68
2022-08-20T06:18:28.382Z,9.48
2022-08-20T06:21:49.205Z,9.43
2022-08-20T06:25:07.851Z,10.05
2022-08-20T06:27:46.843Z,9.70
2022-08-20T06:30:19.410Z,8.95
2022-08-20T06:32:49.843Z,10.65
2022-08-20T06:35:20.109Z,9.80
2022-08-20T06:37:49.107Z,9.85
2022-08-20T06:40:29.612Z,10.43
2022-08-20T06:42:58.930Z,10.25
2022-08-20T06:45:35.005Z,9.82
2022-08-20T06:48:15.258Z,11.38
2022-08-20T06:50:47.717Z,11.38
2022-08-20T06:53:54.530Z,9.82
2022-08-20T06:56:29.775Z,9.25
2022-08-20T07:02:18.209Z,9.35
2022-08-20T07:04:48.501Z,9.18
2022-08-20T07:07:25.201Z,9.20
2022-08-20T07:10:05.654Z,9.70
2022-08-20T07:19:16.403Z,9.70
2022-08-20T07:21:54.044Z,10.32
2022-08-20T07:24:22.655Z,8.57
2022-08-20T07:26:52.694Z,9.15
2022-08-20T07:29:56.585Z,8.98
2022-08-20T07:32:49.060Z,10.27
2022-08-20T07:35:20.154Z,10.52
2022-08-20T07:37:52.082Z,10.25
2022-08-20T07:40:26.038Z,9.82
2022-08-20T07:42:56.437Z,9.77
2022-08-20T07:45:25.529Z,10.35
2022-08-20T07:47:56.212Z,9.70
2022-08-20T07:51:35.754Z,9.95
2022-08-20T07:54:09.231Z,9.75
2022-08-20T07:56:39.198Z,9.75
2022-08-20T07:59:07.763Z,10.00
2022-08-20T08:01:37.256Z,9.93
2022-08-20T08:04:05.679Z,10.55
2022-08-20T08:06:34.313Z,9.80
2022-08-20T08:09:10.234Z,9.65
2022-08-20T08:11:50.640Z,9.27
2022-08-20T08:14:31.836Z,9.73
2022-08-20T08:17:10.838Z,9.25
2022-08-20T08:19:46.844Z,10.40
2022-08-20T08:22:18.368Z,9.45
2022-08-20T08:24:56.771Z,9.70
2022-08-20T08:27:32.909Z,9.50
2022-08-20T08:30:02.350Z,9.15
2022-08-20T08:32:32.018Z,10.32
2022-08-20T08:35:06.858Z,9.30
2022-08-20T08:37:35.860Z,9.02
2022-08-20T08:40:09.872Z,8.73
2022-08-20T08:42:55.892Z,8.05
2022-08-20T08:45:45.868Z,9.10
2022-08-20T08:48:19.660Z,7.93
2022-08-20T08:50:54.777Z,8.30
2022-08-20T08:53:26.740Z,7.85
2022-08-20T08:55:57.316Z,8.38
2022-08-20T08:58:28.119Z,7.10
2022-08-20T09:01:02.091Z,6.80
2022-08-20T09:03:39.065Z,6.85
2022-08-20T09:09:28.440Z,5.45
2022-08-20T09:12:08.774Z,5.60
2022-08-20T09:14:39.477Z,4.90
2022-08-20T09:17:07.917Z,5.38
2022-08-20T09:19:37.599Z,5.13
2022-08-20T09:22:13.428Z,4.32
2022-08-20T09:27:28.136Z,3.35
2022-08-20T09:29:55.206Z,3.55
2022-08-20T09:32:24.649Z,4.40
2022-08-20T09:34:58.983Z,3.97
2022-08-20T09:37:30.615Z,3.78
2022-08-20T09:40:05.908Z,3.20
2022-08-20T09:42:41.008Z,3.03
2022-08-20T09:45:10.702Z,3.40
2022-08-20T09:47:51.771Z,3.25
2022-08-20T09:50:29.154Z,3.20
2022-08-20T09:52:58.417Z,2.65
2022-08-20T09:55:35.228Z,2.53
2022-08-20T09:58:06.341Z,2.55
2022-08-20T10:00:33.271Z,2.80
2022-08-20T10:03:01.956Z,2.60
2022-08-20T10:05:29.185Z,2.90
2022-08-20T10:07:56.850Z,3.13
2022-08-20T10:10:24.150Z,2.20
2022-08-20T10:12:54.869Z,2.90
2022-08-20T10:15:23.243Z,2.53
2022-08-20T10:17:50.271Z,3.30
2022-08-20T10:20:19.022Z,2.60
2022-08-20T10:22:46.307Z,2.60
2022-08-20T10:25:13.722Z,3.17
2022-08-20T10:27:40.739Z,3.58
2022-08-20T10:30:08.381Z,2.85
2022-08-20T10:32:35.469Z,2.97
2022-08-20T10:35:03.509Z,2.97
2022-08-20T10:37:30.555Z,3.08
2022-08-20T10:39:58.692Z,3.15
2022-08-20T10:42:25.702Z,2.92
2022-08-20T10:44:53.872Z,3.33
2022-08-20T10:47:29.698Z,3.00
2022-08-20T10:50:00.281Z,2.85
2022-08-20T10:52:28.537Z,3.35
2022-08-20T10:54:59.013Z,2.97
2022-08-20T10:57:28.746Z,2.90
2022-08-20T10:59:57.646Z,2.92
2022-08-20T11:02:25.314Z,3.13
2022-08-20T11:04:53.134Z,3.03
2022-08-20T11:07:50.797Z,3.00
2022-08-20T11:10:22.795Z,3.20
2022-08-20T11:12:50.862Z,3.30
2022-08-20T11:15:18.256Z,3.15
2022-08-20T11:17:46.445Z,3.33
2022-08-20T11:20:18.268Z,3.28
2022-08-20T11:22:46.737Z,3.10
2022-08-20T11:25:14.189Z,3.35
2022-08-20T11:27:46.431Z,3.10
2022-08-20T11:32:43.845Z,2.60
2022-08-20T11:35:40.427Z,2.70
2022-08-20T11:38:01.267Z,2.72
2022-08-20T11:40:29.764Z,3.10
2022-08-20T11:43:15.535Z,3.17
2022-08-20T11:45:49.686Z,3.38
2022-08-20T11:48:20.776Z,2.90
2022-08-20T11:50:50.712Z,3.22
2022-08-20T11:53:20.688Z,2.92
2022-08-20T11:55:49.377Z,3.17
2022-08-20T11:58:16.700Z,3.00
2022-08-20T12:00:44.968Z,2.90
2022-08-20T12:03:12.343Z,2.65
2022-08-20T12:05:44.895Z,2.70
2022-08-20T12:08:27.092Z,2.58
2022-08-20T12:10:59.736Z,2.80
2022-08-20T12:13:47.038Z,2.05
2022-08-20T12:16:18.269Z,3.05
2022-08-20T12:18:46.241Z,2.45
2022-08-20T12:21:20.372Z,3.03
2022-08-20T12:23:50.758Z,2.67
2022-08-20T12:26:28.672Z,2.30
2022-08-20T12:30:00.144Z,2.58
2022-08-20T12:32:58.745Z,2.55
2022-08-20T12:35:30.092Z,2.30
2022-08-20T12:37:58.539Z,2.25
2022-08-20T12:40:32.138Z,2.38
2022-08-20T12:43:01.645Z,2.13
2022-08-20T12:45:29.485Z,2.20
2022-08-20T12:48:03.796Z,2.40
2022-08-20T12:50:32.124Z,2.13
2022-08-20T12:52:59.650Z,1.77
2022-08-20T12:55:28.075Z,2.25
2022-08-20T12:57:59.362Z,1.75
2022-08-20T13:00:31.212Z,2.20
2022-08-20T13:03:00.918Z,1.85
2022-08-20T13:05:29.125Z,2.10
2022-08-20T13:07:57.474Z,2.40
2022-08-20T13:10:28.179Z,2.55
2022-08-20T13:12:56.635Z,1.70
2022-08-20T13:15:24.127Z,1.92
2022-08-20T13:18:00.298Z,1.90
2022-08-20T13:20:33.959Z,2.00
2022-08-20T13:23:04.895Z,1.90
2022-08-20T13:25:33.432Z,2.38
2022-08-20T13:28:04.424Z,1.85
2022-08-20T13:30:34.290Z,1.90
2022-08-20T13:33:01.657Z,1.95
2022-08-20T13:35:28.715Z,2.22
2022-08-20T13:37:58.532Z,1.70
2022-08-20T13:40:26.281Z,1.88
2022-08-20T13:42:53.592Z,1.88
2022-08-20T13:45:20.748Z,1.48
2022-08-20T13:47:53.229Z,2.00
2022-08-20T13:50:24.825Z,2.00
2022-08-20T13:52:53.066Z,1.90
2022-08-20T13:55:23.487Z,2.22
2022-08-20T13:57:52.188Z,1.58
2022-08-20T14:00:28.122Z,2.05
2022-08-20T14:03:01.286Z,2.28
2022-08-20T14:05:30.835Z,1.77
2022-08-20T14:08:10.184Z,2.53
2022-08-20T14:10:38.335Z,2.85
2022-08-20T14:13:07.126Z,2.85
2022-08-20T14:15:38.709Z,2.42
2022-08-20T14:18:05.708Z,2.08
2022-08-20T14:20:34.676Z,2.72
2022-08-20T14:23:07.113Z,2.50
2022-08-20T14:25:35.864Z,2.05
2022-08-20T14:28:18.205Z,2.50
2022-08-20T14:30:47.820Z,1.50
2022-08-20T14:33:22.972Z,1.67
2022-08-20T14:35:50.175Z,1.95
2022-08-20T14:38:17.668Z,2.10
2022-08-20T14:40:44.803Z,2.20
2022-08-20T14:43:11.695Z,2.05
2022-08-20T14:45:39.710Z,2.17
2022-08-20T14:48:09.157Z,2.67
2022-08-20T14:50:36.543Z,3.22
2022-08-20T14:53:04.241Z,3.92
2022-08-20T14:55:33.902Z,3.25
2022-08-20T14:58:04.892Z,4.20
2022-08-20T15:00:34.870Z,1.98
2022-08-20T15:03:02.939Z,2.47
2022-08-20T15:05:31.498Z,3.22
2022-08-20T15:07:59.337Z,2.92
2022-08-20T15:10:31.125Z,2.95
2022-08-20T15:12:59.683Z,3.22
2022-08-20T15:15:28.432Z,4.30
2022-08-20T15:18:00.350Z,2.08
2022-08-20T15:20:32.132Z,2.65
2022-08-20T15:23:00.029Z,2.60
2022-08-20T15:25:36.938Z,2.40
2022-08-20T15:28:08.238Z,2.40
2022-08-20T15:30:37.893Z,3.58
2022-08-20T15:33:05.064Z,3.58
2022-08-20T15:35:31.963Z,3.13
2022-08-20T15:38:00.555Z,3.60
2022-08-20T15:40:30.172Z,2.97
2022-08-20T15:42:58.553Z,3.38
2022-08-20T15:45:25.895Z,3.47
2022-08-20T15:48:12.354Z,4.43
2022-08-20T15:50:48.484Z,2.83
2022-08-20T15:53:27.939Z,4.38
2022-08-20T15:56:28.614Z,4.60
2022-08-20T15:59:06.537Z,4.75
2022-08-20T16:01:59.633Z,6.88
2022-08-20T16:04:51.172Z,2.67
2022-08-20T16:07:32.539Z,4.53
2022-08-20T16:10:16.069Z,5.00
2022-08-20T16:12:47.309Z,2.40
2022-08-20T16:15:47.474Z,2.92
2022-08-20T16:18:22.029Z,3.30
2022-08-20T16:20:53.913Z,2.50
2022-08-20T16:23:28.897Z,2.15
2022-08-20T16:26:17.646Z,2.25
2022-08-20T16:28:58.546Z,5.30
2022-08-20T16:31:34.500Z,4.13
2022-08-20T16:37:04.833Z,4.53
2022-08-20T16:39:43.443Z,2.70
2022-08-20T16:42:11.499Z,3.20
2022-08-20T16:44:44.803Z,6.68
2022-08-20T16:47:26.889Z,4.53
2022-08-20T16:50:00.797Z,4.68
2022-08-20T16:52:34.105Z,3.40
2022-08-20T16:55:01.043Z,3.17
2022-08-20T16:57:37.748Z,4.00
2022-08-20T17:00:20.226Z,2.95
2022-08-20T17:05:27.534Z,9.65
2022-08-20T17:08:01.334Z,5.68
2022-08-20T17:10:36.158Z,2.72
2022-08-20T17:13:21.160Z,9.40
2022-08-20T17:16:19.317Z,47.60
2022-08-20T17:18:50.922Z,36.95
2022-08-20T17:21:23.259Z,19.10
2022-08-20T17:26:35.953Z,5.93
2022-08-20T17:29:17.485Z,3.88
2022-08-20T17:32:06.827Z,2.78
2022-08-20T17:34:46.285Z,3.20
2022-08-20T17:37:27.250Z,2.95
2022-08-20T17:40:06.497Z,2.88
2022-08-20T17:42:44.387Z,2.85
2022-08-20T17:45:37.594Z,2.47
2022-08-20T17:48:11.906Z,2.15
2022-08-20T17:50:40.895Z,2.92
2022-08-20T17:53:27.021Z,2.40
2022-08-20T17:56:02.473Z,2.60
2022-08-20T17:58:54.601Z,2.60
2022-08-20T18:01:23.868Z,2.20
2022-08-20T18:03:52.584Z,2.83
2022-08-20T18:06:51.997Z,2.47
2022-08-20T18:09:46.730Z,2.80
2022-08-20T18:12:33.666Z,2.65
2022-08-20T18:15:25.470Z,2.28
2022-08-20T18:18:01.486Z,2.50
2022-08-20T18:20:55.269Z,2.45
2022-08-20T18:23:28.647Z,2.25
2022-08-20T18:26:23.370Z,2.80
2022-08-20T18:29:02.863Z,2.85
2022-08-20T18:31:46.567Z,2.60
2022-08-20T18:34:18.061Z,3.25
2022-08-20T18:37:25.746Z,3.30
2022-08-20T18:39:53.103Z,3.65
2022-08-20T18:42:32.617Z,3.38
2022-08-20T18:44:59.915Z,3.10
2022-08-20T18:47:31.921Z,2.80
2022-08-20T18:50:02.335Z,3.75
2022-08-20T18:52:32.376Z,3.42
2022-08-20T18:55:06.544Z,5.20
2022-08-20T18:57:41.396Z,3.75
2022-08-20T19:00:17.596Z,3.97
2022-08-20T19:02:58.090Z,4.03
2022-08-20T19:05:40.102Z,3.33
2022-08-20T19:08:09.418Z,3.30
2022-08-20T19:10:49.644Z,3.28
2022-08-20T19:13:28.712Z,3.40
2022-08-20T19:16:07.300Z,3.17
2022-08-20T19:18:46.005Z,3.55
2022-08-20T19:21:16.858Z,3.03
2022-08-20T19:23:50.347Z,3.85
2022-08-20T19:26:25.147Z,3.47
2022-08-20T19:29:12.812Z,3.35
2022-08-20T19:31:42.074Z,2.83
2022-08-20T19:34:19.774Z,3.60
2022-08-20T19:37:32.258Z,3.90
2022-08-20T19:39:58.065Z,3.70
2022-08-20T19:42:29.907Z,3.28
2022-08-20T19:45:01.514Z,3.05
2022-08-20T19:47:38.540Z,3.30
2022-08-20T19:50:23.126Z,3.88
2022-08-20T19:53:17.799Z,4.15
2022-08-20T19:55:59.117Z,4.13
2022-08-20T19:59:24.458Z,4.35
2022-08-20T20:02:21.550Z,4.65
2022-08-20T20:05:06.978Z,4.25
2022-08-20T20:07:40.962Z,4.22
2022-08-20T20:10:10.756Z,4.07
2022-08-20T20:12:39.034Z,4.40
2022-08-20T20:15:06.958Z,3.97
2022-08-20T20:17:36.842Z,4.90
2022-08-20T20:20:22.015Z,4.35
2022-08-20T20:23:05.898Z,4.40
2022-08-20T20:25:34.060Z,4.40
2022-08-20T20:28:27.289Z,3.97
2022-08-20T20:30:54.909Z,3.72
2022-08-20T20:33:31.363Z,4.18
2022-08-20T20:36:08.066Z,4.43
2022-08-20T20:38:37.546Z,4.57
2022-08-20T20:41:20.317Z,4.05
2022-08-20T20:44:02.472Z,4.13
2022-08-20T20:46:32.067Z,4.20
2022-08-20T20:49:09.250Z,4.28
2022-08-20T20:51:42.893Z,4.03
2022-08-20T20:54:27.389Z,4.32
2022-08-20T20:57:07.559Z,3.80
2022-08-20T20:59:36.350Z,3.95
2022-08-20T21:02:03.898Z,3.80
2022-08-20T21:04:31.096Z,3.78
2022-08-20T21:07:07.348Z,4.10
2022-08-20T21:09:39.045Z,3.78
2022-08-20T21:12:08.922Z,3.63
2022-08-20T21:14:36.861Z,3.67
2022-08-20T21:17:07.034Z,3.90
2022-08-20T21:19:34.610Z,3.55
2022-08-20T21:22:11.847Z,22.75
2022-08-20T21:24:38.737Z,3.45
2022-08-20T21:27:05.846Z,3.33
2022-08-20T21:29:33.153Z,3.42
2022-08-20T21:32:00.570Z,3.30
2022-08-20T21:34:27.548Z,3.60
2022-08-20T21:36:54.504Z,3.20
2022-08-20T21:39:23.214Z,3.30
2022-08-20T21:41:51.683Z,3.58
2022-08-20T21:44:25.068Z,4.20
2022-08-20T21:46:55.352Z,3.20
2022-08-20T21:49:25.674Z,3.60
2022-08-20T21:51:53.309Z,3.80
2022-08-20T21:54:21.748Z,3.25
2022-08-20T21:56:52.573Z,3.42
2022-08-20T21:59:21.842Z,3.20
2022-08-20T22:01:49.570Z,3.40
2022-08-20T22:04:19.315Z,3.60
2022-08-20T22:06:47.166Z,3.72
2022-08-20T22:09:14.748Z,3.15
2022-08-20T22:11:41.850Z,3.17
2022-08-20T22:14:11.358Z,3.03
2022-08-20T22:16:38.308Z,3.78
2022-08-20T22:19:10.757Z,3.00
2022-08-20T22:21:41.709Z,2.75
2022-08-20T22:24:09.526Z,2.95
2022-08-20T22:26:38.674Z,3.20
2022-08-20T22:29:08.360Z,3.33
2022-08-20T22:31:38.638Z,3.10
2022-08-20T22:34:06.373Z,3.33
2022-08-20T22:36:33.703Z,3.10
2022-08-20T22:39:03.504Z,3.03
2022-08-20T22:41:30.484Z,3.30
2022-08-20T22:43:57.557Z,3.03
2022-08-20T22:46:32.050Z,3.28
2022-08-20T22:48:59.277Z,3.50
2022-08-20T22:51:32.718Z,3.85
2022-08-20T22:54:04.790Z,3.03
2022-08-20T22:56:32.126Z,3.50
2022-08-20T22:58:59.796Z,2.95
2022-08-20T23:01:28.770Z,3.08
2022-08-20T23:04:00.152Z,3.53
2022-08-20T23:06:29.840Z,4.20
2022-08-20T23:08:56.749Z,3.70
2022-08-20T23:11:23.611Z,3.25
2022-08-20T23:13:50.490Z,2.90
2022-08-20T23:16:18.607Z,3.30
2022-08-20T23:18:45.551Z,3.05
2022-08-20T23:21:13.353Z,2.40
2022-08-20T23:23:41.992Z,3.20
2022-08-20T23:26:08.975Z,3.63
2022-08-20T23:28:36.027Z,2.80
2022-08-20T23:31:02.973Z,3.35
2022-08-20T23:33:31.361Z,2.85
2022-08-20T23:36:03.303Z,2.92
2022-08-20T23:38:31.271Z,2.75
2022-08-20T23:40:58.141Z,3.00
2022-08-20T23:43:26.475Z,2.65
2022-08-20T23:45:58.698Z,2.97
2022-08-20T23:48:26.563Z,2.80
2022-08-20T23:50:53.683Z,3.20
2022-08-20T23:53:22.836Z,3.42
2022-08-20T23:55:49.714Z,2.58
2022-08-20T23:58:16.553Z,2.97
